createdAt,value
2019-01-02T00:00:43.637Z,19.42
2019-01-02T00:03:11.391Z,18.70
2019-01-02T00:05:39.476Z,19.03
2019-01-02T00:08:07.254Z,16.27
2019-01-02T00:10:35.453Z,17.57
2019-01-02T00:13:03.194Z,20.70
2019-01-02T00:15:31.204Z,16.30
2019-01-02T00:17:58.924Z,17.67
2019-01-02T00:20:26.688Z,20.17
2019-01-02T00:22:54.576Z,19.07
2019-01-02T00:25:22.309Z,17.80
2019-01-02T00:27:50.208Z,15.80
2019-01-02T00:30:17.919Z,17.40
2019-01-02T00:32:45.921Z,16.33
2019-01-02T00:35:13.634Z,18.80
2019-01-02T00:37:41.449Z,15.37
2019-01-02T00:40:09.865Z,15.33
2019-01-02T00:42:37.901Z,18.20
2019-01-02T00:45:06.649Z,15.93
2019-01-02T00:47:34.747Z,15.00
2019-01-02T00:50:02.667Z,19.07
2019-01-02T00:52:30.805Z,17.00
2019-01-02T00:54:58.502Z,19.60
2019-01-02T00:57:26.620Z,19.53
2019-01-02T00:59:54.352Z,18.87
2019-01-02T01:02:22.546Z,17.93
2019-01-02T01:04:50.261Z,18.53
2019-01-02T01:07:18.304Z,18.03
2019-01-02T01:09:45.989Z,16.67
2019-01-02T01:12:13.693Z,15.53
2019-01-02T01:14:41.422Z,16.50
2019-01-02T01:17:09.144Z,16.83
2019-01-02T01:19:36.841Z,17.23
2019-01-02T01:22:04.557Z,14.50
2019-01-02T01:24:32.249Z,16.70
2019-01-02T01:27:00.282Z,14.53
2019-01-02T01:29:28.144Z,18.93
2019-01-02T01:31:55.841Z,18.40
2019-01-02T01:34:23.542Z,17.77
2019-01-02T01:36:51.265Z,17.30
2019-01-02T01:39:19.248Z,18.10
2019-01-02T01:41:46.942Z,15.93
2019-01-02T01:44:14.658Z,16.13
2019-01-02T01:46:42.383Z,15.63
2019-01-02T01:49:10.077Z,16.40
2019-01-02T01:51:38.221Z,16.73
2019-01-02T01:54:05.929Z,14.73
2019-01-02T01:56:33.646Z,19.63
2019-01-02T01:59:01.442Z,14.60
2019-01-02T02:01:29.157Z,14.97
2019-01-02T02:03:57.138Z,17.80
2019-01-02T02:06:24.885Z,17.50
2019-01-02T02:08:52.593Z,17.83
2019-01-02T02:11:20.318Z,17.43
2019-01-02T02:13:48.068Z,16.73
2019-01-02T02:16:16.179Z,16.40
2019-01-02T02:18:43.895Z,18.93
2019-01-02T02:21:11.618Z,17.07
2019-01-02T02:23:39.328Z,15.50
2019-01-02T02:26:07.041Z,14.73
2019-01-02T02:28:34.985Z,12.80
2019-01-02T02:31:02.773Z,16.47
2019-01-02T02:33:30.772Z,16.97
2019-01-02T02:35:58.904Z,13.20
2019-01-02T02:38:26.952Z,16.03
2019-01-02T02:40:55.061Z,18.63
2019-01-02T02:43:22.780Z,14.57
2019-01-02T02:45:50.488Z,14.33
2019-01-02T02:48:18.585Z,10.13
2019-01-02T02:50:46.701Z,12.23
2019-01-02T02:53:14.609Z,10.47
2019-01-02T02:55:43.109Z,12.17
2019-01-02T02:58:11.127Z,11.53
2019-01-02T03:00:39.017Z,11.10
2019-01-02T03:03:07.018Z,12.10
2019-01-02T03:05:34.796Z,11.33
2019-01-02T03:08:02.508Z,10.60
2019-01-02T03:10:30.500Z,11.43
2019-01-02T03:12:58.525Z,9.00
2019-01-02T03:15:26.426Z,9.97
2019-01-02T03:17:54.128Z,10.70
2019-01-02T03:20:21.854Z,10.00
2019-01-02T03:22:49.579Z,13.17
2019-01-02T03:25:17.677Z,10.40
2019-01-02T03:27:45.738Z,10.30
2019-01-02T03:30:18.259Z,11.93
2019-01-02T03:32:46.257Z,11.07
2019-01-02T03:35:14.373Z,11.60
2019-01-02T03:37:42.082Z,9.73
2019-01-02T03:40:09.783Z,10.47
2019-01-02T03:42:37.629Z,11.23
2019-01-02T03:45:07.912Z,12.37
2019-01-02T03:47:35.629Z,11.40
2019-01-02T03:50:03.881Z,10.67
2019-01-02T03:52:31.595Z,9.23
2019-01-02T03:54:59.289Z,10.63
2019-01-02T03:57:27.007Z,13.47
2019-01-02T03:59:54.717Z,11.70
2019-01-02T04:02:22.422Z,11.27
2019-01-02T04:04:50.135Z,12.50
2019-01-02T04:07:17.854Z,10.80
2019-01-02T04:09:45.558Z,12.60
2019-01-02T04:12:13.278Z,13.03
2019-01-02T04:14:40.979Z,12.73
2019-01-02T04:17:08.701Z,14.53
2019-01-02T04:19:36.416Z,12.00
2019-01-02T04:22:04.153Z,10.30
2019-01-02T04:24:31.873Z,13.77
2019-01-02T04:26:59.602Z,12.17
2019-01-02T04:29:27.301Z,12.13
2019-01-02T04:31:54.997Z,12.33
2019-01-02T04:34:22.657Z,10.53
2019-01-02T04:36:50.352Z,13.20
2019-01-02T04:39:18.050Z,10.97
2019-01-02T04:41:45.774Z,16.40
2019-01-02T04:44:13.474Z,10.40
2019-01-02T04:46:41.271Z,15.00
2019-01-02T04:49:09.005Z,14.43
2019-01-02T04:51:36.701Z,11.10
2019-01-02T04:54:04.409Z,13.17
2019-01-02T04:56:32.137Z,13.73
2019-01-02T04:58:59.850Z,12.47
2019-01-02T05:01:27.556Z,10.03
2019-01-02T05:03:55.297Z,14.67
2019-01-02T05:06:22.984Z,13.80
2019-01-02T05:08:50.681Z,12.73
2019-01-02T05:11:18.406Z,13.00
2019-01-02T05:13:46.101Z,10.97
2019-01-02T05:16:13.811Z,13.33
2019-01-02T05:18:41.572Z,14.90
2019-01-02T05:21:09.266Z,12.63
2019-01-02T05:23:36.979Z,12.93
2019-01-02T05:26:04.717Z,12.60
2019-01-02T05:28:32.420Z,11.47
2019-01-02T05:31:00.145Z,12.73
2019-01-02T05:33:28.247Z,13.13
2019-01-02T05:35:55.981Z,13.20
2019-01-02T05:38:23.693Z,11.37
2019-01-02T05:40:51.442Z,12.43
2019-01-02T05:43:19.116Z,13.00
2019-01-02T05:45:46.813Z,11.20
2019-01-02T05:48:14.554Z,13.30
2019-01-02T05:50:42.273Z,14.73
2019-01-02T05:53:10.020Z,13.60
2019-01-02T05:55:37.745Z,19.23
2019-01-02T05:58:05.533Z,15.97
2019-01-02T06:00:33.259Z,11.03
2019-01-02T06:03:00.976Z,14.33
2019-01-02T06:05:28.723Z,11.27
2019-01-02T06:07:56.421Z,12.30
2019-01-02T06:10:24.140Z,13.57
2019-01-02T06:12:51.901Z,10.57
2019-01-02T06:15:19.612Z,13.00
2019-01-02T06:17:47.330Z,11.27
2019-01-02T06:20:16.513Z,14.37
2019-01-02T06:22:44.225Z,15.27
2019-01-02T06:25:11.989Z,17.17
2019-01-02T06:27:39.690Z,13.77
2019-01-02T06:30:11.122Z,11.70
2019-01-02T06:32:38.969Z,15.97
2019-01-02T06:35:07.597Z,13.03
2019-01-02T06:37:35.297Z,14.47
2019-01-02T06:40:03.464Z,16.57
2019-01-02T06:42:31.161Z,13.73
2019-01-02T06:44:58.876Z,16.00
2019-01-02T06:47:26.589Z,13.43
2019-01-02T06:49:54.299Z,13.63
2019-01-02T06:52:21.988Z,12.30
2019-01-02T06:54:49.707Z,16.13
2019-01-02T06:57:17.408Z,15.73
2019-01-02T06:59:45.109Z,14.00
2019-01-02T07:02:12.817Z,14.83
2019-01-02T07:04:40.505Z,15.20
2019-01-02T07:07:08.207Z,15.23
2019-01-02T07:09:35.936Z,15.60
2019-01-02T07:12:03.633Z,16.17
2019-01-02T07:14:31.345Z,17.43
2019-01-02T07:16:59.081Z,17.47
2019-01-02T07:19:26.780Z,14.77
2019-01-02T07:21:54.483Z,15.70
2019-01-02T07:24:22.324Z,23.05
2019-01-02T07:26:50.167Z,16.60
2019-01-02T07:29:17.969Z,18.97
2019-01-02T07:31:45.704Z,16.97
2019-01-02T07:34:23.480Z,18.00
2019-01-02T07:37:39.774Z,16.63
2019-01-02T07:40:27.789Z,18.03
2019-01-02T07:43:31.833Z,15.73
2019-01-02T07:46:25.091Z,19.35
2019-01-02T07:49:33.362Z,17.20
2019-01-02T07:52:30.929Z,15.10
2019-01-02T07:55:46.514Z,19.03
2019-01-02T07:59:06.221Z,14.93
2019-01-02T08:02:17.473Z,17.43
2019-01-02T08:05:24.477Z,18.93
2019-01-02T08:08:24.732Z,17.80
2019-01-02T08:11:27.891Z,16.57
2019-01-02T08:15:02.839Z,17.43
2019-01-02T08:18:10.825Z,19.80
2019-01-02T08:21:25.300Z,19.50
2019-01-02T08:24:55.954Z,19.00
2019-01-02T08:28:07.549Z,17.67
2019-01-02T08:31:22.805Z,19.73
2019-01-02T08:34:21.409Z,16.57
2019-01-02T08:37:13.914Z,16.67
2019-01-02T08:40:17.257Z,19.80
2019-01-02T08:43:22.812Z,21.17
2019-01-02T08:46:33.598Z,20.30
2019-01-02T08:49:47.073Z,21.10
2019-01-02T08:52:47.957Z,18.37
2019-01-02T08:55:55.497Z,22.43
2019-01-02T08:59:11.751Z,25.03
2019-01-02T09:02:32.000Z,27.20
2019-01-02T09:05:26.937Z,24.83
2019-01-02T09:08:33.551Z,22.93
2019-01-02T09:11:47.809Z,24.33
2019-01-02T09:15:03.038Z,24.57
2019-01-02T09:18:18.638Z,27.83
2019-01-02T09:20:55.426Z,21.37
2019-01-02T09:24:21.124Z,23.20
2019-01-02T09:27:33.258Z,23.67
2019-01-02T09:30:57.474Z,18.97
2019-01-02T09:33:52.199Z,23.60
2019-01-02T09:37:18.549Z,20.50
2019-01-02T09:40:30.889Z,19.03
2019-01-02T09:43:36.461Z,18.83
2019-01-02T09:46:35.641Z,23.53
2019-01-02T09:49:35.726Z,22.20
2019-01-02T09:52:49.785Z,18.80
2019-01-02T09:55:57.797Z,20.30
2019-01-02T09:58:54.307Z,20.13
2019-01-02T10:01:41.596Z,21.73
2019-01-02T10:04:54.237Z,22.60
2019-01-02T10:08:10.220Z,21.13
2019-01-02T10:11:21.717Z,19.63
2019-01-02T10:14:35.816Z,16.93
2019-01-02T10:17:32.057Z,19.63
2019-01-02T10:20:44.037Z,17.17
2019-01-02T10:23:41.193Z,13.40
2019-01-02T10:26:54.075Z,15.77
2019-01-02T10:29:59.349Z,15.67
2019-01-02T10:32:57.212Z,14.77
2019-01-02T10:36:15.449Z,14.03
2019-01-02T10:39:35.893Z,15.63
2019-01-02T10:42:45.471Z,19.43
2019-01-02T10:46:05.053Z,18.13
2019-01-02T10:49:07.056Z,14.00
2019-01-02T10:52:11.146Z,15.90
2019-01-02T10:55:16.779Z,15.72
2019-01-02T10:58:36.453Z,17.40
2019-01-02T11:01:32.390Z,20.75
2019-01-02T11:04:40.698Z,19.17
2019-01-02T11:07:33.156Z,18.53
2019-01-02T11:10:42.087Z,14.80
2019-01-02T11:13:54.159Z,9.77
2019-01-02T11:16:49.229Z,13.23
2019-01-02T11:20:07.661Z,12.13
2019-01-02T11:23:10.775Z,8.77
2019-01-02T11:26:38.261Z,11.83
2019-01-02T11:30:05.767Z,6.07
2019-01-02T11:33:04.946Z,5.93
2019-01-02T11:36:03.917Z,5.93
2019-01-02T11:39:17.182Z,6.50
2019-01-02T11:42:50.825Z,4.57
2019-01-02T11:45:18.529Z,7.37
2019-01-02T11:47:46.222Z,4.53
2019-01-02T11:50:14.911Z,6.50
2019-01-02T11:52:42.622Z,6.27
2019-01-02T11:55:10.325Z,6.37
2019-01-02T11:57:38.069Z,6.63
2019-01-02T12:00:09.317Z,6.40
2019-01-02T12:02:37.045Z,7.03
2019-01-02T12:05:05.090Z,5.43
2019-01-02T12:07:32.792Z,8.00
2019-01-02T12:10:00.610Z,7.20
2019-01-02T12:12:28.344Z,5.70
2019-01-02T12:14:56.292Z,7.70
2019-01-02T12:17:23.961Z,5.10
2019-01-02T12:19:51.707Z,7.97
2019-01-02T12:22:19.425Z,7.53
2019-01-02T12:24:47.161Z,6.53
2019-01-02T12:27:14.921Z,6.27
2019-01-02T12:29:42.652Z,7.30
2019-01-02T12:32:10.382Z,7.07
2019-01-02T12:34:38.074Z,5.97
2019-01-02T12:37:05.785Z,8.80
2019-01-02T12:39:33.524Z,8.50
2019-01-02T12:42:01.233Z,8.37
2019-01-02T12:44:28.940Z,5.83
2019-01-02T12:46:58.201Z,7.70
2019-01-02T12:49:27.533Z,6.47
2019-01-02T12:51:55.258Z,5.67
2019-01-02T12:54:22.958Z,6.77
2019-01-02T12:56:50.923Z,8.13
2019-01-02T12:59:36.769Z,7.00
2019-01-02T13:02:40.889Z,6.57
2019-01-02T13:05:45.385Z,4.10
2019-01-02T13:08:49.896Z,4.00
2019-01-02T13:11:32.888Z,4.30
2019-01-02T13:14:50.785Z,4.10
2019-01-02T13:17:57.320Z,4.37
2019-01-02T13:20:40.057Z,5.57
2019-01-02T13:23:48.162Z,4.57
2019-01-02T13:26:53.832Z,5.47
2019-01-02T13:30:04.900Z,5.10
2019-01-02T13:33:23.301Z,4.57
2019-01-02T13:36:20.157Z,4.50
2019-01-02T13:39:11.833Z,7.33
2019-01-02T13:42:10.560Z,4.17
2019-01-02T13:44:56.324Z,4.43
2019-01-02T13:48:04.592Z,4.30
2019-01-02T13:51:06.070Z,7.10
2019-01-02T13:53:33.779Z,7.03
2019-01-02T13:56:01.520Z,4.97
2019-01-02T13:58:29.253Z,4.93
2019-01-02T14:00:59.566Z,4.80
2019-01-02T14:03:27.339Z,8.50
2019-01-02T14:05:55.138Z,5.27
2019-01-02T14:08:22.851Z,3.90
2019-01-02T14:10:50.546Z,4.60
2019-01-02T14:13:18.305Z,6.90
2019-01-02T14:15:46.015Z,6.17
2019-01-02T14:18:13.726Z,10.70
2019-01-02T14:20:41.466Z,8.47
2019-01-02T14:23:10.932Z,7.17
2019-01-02T14:25:38.644Z,6.33
2019-01-02T14:28:06.310Z,9.77
2019-01-02T14:30:34.038Z,6.23
2019-01-02T14:33:01.782Z,10.13
2019-01-02T14:35:29.517Z,8.50
2019-01-02T14:37:57.369Z,7.80
2019-01-02T14:40:25.069Z,9.27
2019-01-02T14:42:52.799Z,11.13
2019-01-02T14:45:20.511Z,14.87
2019-01-02T14:47:48.240Z,11.83
2019-01-02T14:50:15.985Z,9.47
2019-01-02T14:52:43.702Z,10.50
2019-01-02T14:55:11.413Z,10.43
2019-01-02T14:57:39.161Z,11.97
2019-01-02T15:00:10.633Z,10.60
2019-01-02T15:02:38.355Z,9.37
2019-01-02T15:05:06.147Z,12.00
2019-01-02T15:07:33.884Z,13.07
2019-01-02T15:10:01.577Z,18.80
2019-01-02T15:12:29.305Z,11.83
2019-01-02T15:14:57.221Z,11.27
2019-01-02T15:17:25.350Z,17.50
2019-01-02T15:19:53.175Z,15.70
2019-01-02T15:22:20.882Z,15.53
2019-01-02T15:24:49.497Z,12.10
2019-01-02T15:27:17.460Z,11.00
2019-01-02T15:29:45.161Z,10.97
2019-01-02T15:32:12.897Z,11.03
2019-01-02T15:34:40.654Z,11.77
2019-01-02T15:37:08.444Z,11.77
2019-01-02T15:39:36.154Z,12.87
2019-01-02T15:42:03.900Z,10.90
2019-01-02T15:44:31.605Z,12.30
2019-01-02T15:46:59.312Z,13.03
2019-01-02T15:49:27.044Z,14.30
2019-01-02T15:51:54.740Z,11.70
2019-01-02T15:54:22.437Z,15.50
2019-01-02T15:56:50.241Z,9.13
2019-01-02T15:59:17.978Z,11.60
2019-01-02T16:01:45.686Z,17.30
2019-01-02T16:04:13.489Z,13.57
2019-01-02T16:06:41.176Z,12.40
2019-01-02T16:09:08.889Z,16.43
2019-01-02T16:11:37.925Z,15.87
2019-01-02T16:14:05.720Z,16.40
2019-01-02T16:16:33.448Z,13.43
2019-01-02T16:19:01.180Z,15.03
2019-01-02T16:21:28.907Z,13.43
2019-01-02T16:23:56.803Z,15.80
2019-01-02T16:26:24.549Z,14.20
2019-01-02T16:28:52.329Z,20.17
2019-01-02T16:31:20.030Z,13.20
2019-01-02T16:33:47.764Z,14.30
2019-01-02T16:36:15.459Z,20.40
2019-01-02T16:38:43.202Z,17.57
2019-01-02T16:41:10.909Z,16.47
2019-01-02T16:43:38.607Z,22.40
2019-01-02T16:46:06.306Z,19.53
2019-01-02T16:48:34.063Z,18.33
2019-01-02T16:51:01.760Z,15.63
2019-01-02T16:53:29.461Z,15.73
2019-01-02T16:55:57.238Z,15.20
2019-01-02T16:58:24.941Z,16.00
2019-01-02T17:00:52.673Z,16.30
2019-01-02T17:03:20.420Z,12.13
2019-01-02T17:05:48.121Z,19.93
2019-01-02T17:08:15.836Z,16.63
2019-01-02T17:10:43.646Z,11.87
2019-01-02T17:13:11.338Z,15.27
2019-01-02T17:15:39.041Z,19.73
2019-01-02T17:18:06.758Z,16.97
2019-01-02T17:20:34.451Z,15.77
2019-01-02T17:23:02.154Z,26.00
2019-01-02T17:25:29.870Z,17.90
2019-01-02T17:27:57.646Z,18.80
2019-01-02T17:30:25.407Z,16.33
2019-01-02T17:32:53.095Z,18.50
2019-01-02T17:35:20.790Z,21.43
2019-01-02T17:37:48.522Z,23.33
2019-01-02T17:40:16.265Z,21.50
2019-01-02T17:42:43.979Z,24.80
2019-01-02T17:45:11.711Z,21.07
2019-01-02T17:47:39.478Z,21.87
2019-01-02T17:50:08.580Z,24.40
2019-01-02T17:52:36.290Z,17.77
2019-01-02T17:55:04.064Z,22.70
2019-01-02T17:57:31.818Z,17.30
2019-01-02T17:59:59.527Z,21.87
2019-01-02T18:02:27.286Z,22.80
2019-01-02T18:04:54.989Z,23.40
2019-01-02T18:07:22.685Z,17.97
2019-01-02T18:09:50.536Z,21.30
2019-01-02T18:12:18.244Z,24.23
2019-01-02T18:14:46.882Z,30.83
2019-01-02T18:17:15.570Z,23.60
2019-01-02T18:19:43.264Z,17.47
2019-01-02T18:22:11.014Z,25.10
2019-01-02T18:24:39.361Z,28.83
2019-01-02T18:27:07.091Z,23.93
2019-01-02T18:29:34.837Z,20.87
2019-01-02T18:32:02.580Z,31.53
2019-01-02T18:34:30.270Z,29.70
2019-01-02T18:36:58.078Z,35.07
2019-01-02T18:39:26.124Z,34.17
2019-01-02T18:41:53.805Z,36.60
2019-01-02T18:44:21.518Z,29.47
2019-01-02T18:46:49.247Z,19.07
2019-01-02T18:49:16.984Z,27.63
2019-01-02T18:51:44.692Z,25.50
2019-01-02T18:54:12.429Z,26.20
2019-01-02T18:56:40.154Z,33.48
2019-01-02T18:59:07.846Z,42.47
2019-01-02T19:01:35.573Z,23.47
2019-01-02T19:04:03.296Z,25.00
2019-01-02T19:06:30.989Z,29.33
2019-01-02T19:08:58.833Z,29.57
2019-01-02T19:11:29.428Z,28.17
2019-01-02T19:13:57.725Z,31.63
2019-01-02T19:16:28.155Z,33.33
2019-01-02T19:18:55.979Z,16.67
2019-01-02T19:21:23.666Z,18.73
2019-01-02T19:23:53.014Z,15.73
2019-01-02T19:26:20.789Z,16.90
2019-01-02T19:28:48.531Z,13.23
2019-01-02T19:31:16.298Z,19.03
2019-01-02T19:33:44.007Z,16.47
2019-01-02T19:36:11.710Z,12.93
2019-01-02T19:38:39.672Z,11.73
2019-01-02T19:41:07.404Z,10.20
2019-01-02T19:43:35.250Z,11.43
2019-01-02T19:46:03.423Z,10.17
2019-01-02T19:48:31.146Z,8.27
2019-01-02T19:50:58.852Z,8.63
2019-01-02T19:53:27.630Z,15.43
2019-01-02T19:55:55.422Z,16.67
2019-01-02T19:58:23.677Z,19.93
2019-01-02T20:00:51.492Z,23.90
2019-01-02T20:03:20.394Z,22.67
2019-01-02T20:05:48.112Z,20.00
2019-01-02T20:08:15.925Z,27.70
2019-01-02T20:10:43.622Z,23.43
2019-01-02T20:13:11.329Z,23.60
2019-01-02T20:15:41.281Z,29.13
2019-01-02T20:18:09.769Z,28.20
2019-01-02T20:20:37.459Z,24.33
2019-01-02T20:23:05.901Z,24.83
2019-01-02T20:25:33.609Z,42.80
2019-01-02T20:28:01.917Z,28.77
2019-01-02T20:30:29.684Z,30.43
2019-01-02T20:32:57.597Z,28.97
2019-01-02T20:35:25.334Z,30.30
2019-01-02T20:37:53.922Z,31.87
2019-01-02T20:40:24.835Z,30.17
2019-01-02T20:42:52.505Z,27.30
2019-01-02T20:45:21.260Z,28.37
2019-01-02T20:47:48.962Z,30.77
2019-01-02T20:50:16.662Z,25.43
2019-01-02T20:52:44.381Z,40.10
2019-01-02T20:55:12.090Z,33.93
2019-01-02T20:57:39.777Z,37.97
2019-01-02T21:00:09.665Z,37.53
2019-01-02T21:02:37.373Z,34.87
2019-01-02T21:05:05.093Z,35.13
2019-01-02T21:07:32.816Z,35.40
2019-01-02T21:10:00.514Z,36.03
2019-01-02T21:12:28.226Z,35.03
2019-01-02T21:14:57.295Z,36.53
2019-01-02T21:17:24.987Z,37.57
2019-01-02T21:19:54.798Z,47.57
2019-01-02T21:22:22.689Z,55.07
2019-01-02T21:24:50.386Z,61.50
2019-01-02T21:27:18.807Z,46.37
2019-01-02T21:29:46.522Z,41.00
2019-01-02T21:32:14.259Z,56.83
2019-01-02T21:34:41.953Z,53.57
2019-01-02T21:37:09.672Z,69.50
2019-01-02T21:39:37.400Z,65.90
2019-01-02T21:42:05.109Z,56.80
2019-01-02T21:44:32.838Z,47.20
2019-01-02T21:47:00.541Z,51.47
2019-01-02T21:49:28.242Z,58.57
2019-01-02T21:51:56.086Z,53.43
2019-01-02T21:54:23.763Z,67.60
2019-01-02T21:56:51.461Z,72.10
2019-01-02T21:59:19.197Z,65.13
2019-01-02T22:01:46.897Z,72.33
2019-01-02T22:04:14.630Z,80.10
2019-01-02T22:06:42.369Z,69.70
2019-01-02T22:09:10.075Z,56.40
2019-01-02T22:11:39.040Z,60.93
2019-01-02T22:14:06.849Z,54.77
2019-01-02T22:16:34.561Z,50.00
2019-01-02T22:19:02.284Z,55.00
2019-01-02T22:21:30.006Z,47.37
2019-01-02T22:23:57.800Z,42.47
2019-01-02T22:26:25.520Z,47.10
2019-01-02T22:28:53.248Z,42.03
2019-01-02T22:31:20.985Z,41.30
2019-01-02T22:33:48.723Z,36.87
2019-01-02T22:36:16.446Z,38.90
2019-01-02T22:38:44.151Z,35.03
2019-01-02T22:41:11.931Z,40.87
2019-01-02T22:43:39.611Z,44.40
2019-01-02T22:46:07.309Z,40.77
2019-01-02T22:48:35.002Z,45.20
2019-01-02T22:51:02.723Z,43.60
2019-01-02T22:53:30.423Z,44.87
2019-01-02T22:55:58.129Z,40.87
2019-01-02T22:58:25.874Z,52.10
2019-01-02T23:01:06.288Z,50.63
2019-01-02T23:03:53.438Z,56.27
2019-01-02T23:06:39.364Z,60.37
2019-01-02T23:09:25.029Z,49.67
2019-01-02T23:12:10.752Z,52.27
2019-01-02T23:15:00.749Z,55.30
2019-01-02T23:17:50.429Z,52.67
2019-01-02T23:20:35.926Z,57.73
2019-01-02T23:23:21.821Z,55.20
2019-01-02T23:26:07.538Z,61.03
2019-01-02T23:29:00.234Z,56.47
2019-01-02T23:31:53.284Z,58.83
2019-01-02T23:34:42.977Z,58.33
2019-01-02T23:37:45.199Z,63.93
2019-01-02T23:40:44.229Z,53.53
2019-01-02T23:43:49.413Z,51.77
2019-01-02T23:46:34.727Z,59.13
2019-01-02T23:49:20.297Z,52.37
2019-01-02T23:52:07.432Z,51.80
2019-01-02T23:54:53.346Z,57.37
2019-01-02T23:57:40.470Z,48.50
